Time;durP1;ratioP1;P1;durP2;ratioP2;P2;SDS_P1;SDS_P2;PMS_P1;PMS_P2;Temp;Humidity;BMP_temperature;BMP_pressure;BME280_temperature;BME280_humidity;BME280_pressure;Samples;Min_cycle;Max_cycle;Signal;HPM_P1;HPM_P2
2020/12/26 00:01:17;;;;;;;7.85;6.05;;;3.80;99.90;;;;;;4952090;28;20195;-74
2020/12/26 00:03:43;;;;;;;9.95;6.68;;;3.90;99.90;;;;;;4957514;28;20661;-74
2020/12/26 00:06:20;;;;;;;12.10;6.57;;;3.90;99.90;;;;;;4953942;28;20219;-73
2020/12/26 00:08:46;;;;;;;12.65;7.35;;;4.10;99.90;;;;;;4937034;28;20219;-73
2020/12/26 00:11:16;;;;;;;14.93;6.90;;;3.80;99.90;;;;;;4932171;28;20249;-74
2020/12/26 00:13:43;;;;;;;15.65;8.60;;;3.80;99.90;;;;;;4923133;28;20215;-73
2020/12/26 00:16:15;;;;;;;11.90;6.85;;;3.80;99.90;;;;;;4975168;28;20203;-72
2020/12/26 00:18:45;;;;;;;10.48;7.57;;;3.90;99.90;;;;;;4964783;28;20654;-73
2020/12/26 00:21:15;;;;;;;11.90;7.05;;;3.90;99.90;;;;;;4963883;28;20567;-74
2020/12/26 00:23:44;;;;;;;9.05;6.95;;;3.90;99.90;;;;;;4954469;28;20287;-75
2020/12/26 00:26:14;;;;;;;24.15;8.18;;;3.80;99.90;;;;;;4957673;28;20200;-75
2020/12/26 00:28:41;;;;;;;9.00;7.18;;;3.80;99.90;;;;;;4957290;28;20279;-75
2020/12/26 00:31:15;;;;;;;9.77;7.43;;;4.00;99.90;;;;;;4950029;29;20279;-73
2020/12/26 00:33:43;;;;;;;15.13;8.40;;;4.00;99.90;;;;;;4941402;29;20685;-74
2020/12/26 00:36:14;;;;;;;8.60;7.40;;;3.90;99.90;;;;;;4940879;29;20242;-75
2020/12/26 00:38:43;;;;;;;10.77;7.97;;;3.80;99.90;;;;;;4956018;28;20235;-74
2020/12/26 00:41:15;;;;;;;13.35;8.40;;;4.10;99.90;;;;;;4940634;29;20290;-74
2020/12/26 00:43:41;;;;;;;18.75;10.30;;;3.80;99.90;;;;;;4955946;29;20195;-74
2020/12/26 00:46:11;;;;;;;12.95;8.30;;;3.90;99.90;;;;;;4940306;29;20216;-74
2020/12/26 00:48:41;;;;;;;13.80;9.50;;;3.90;99.90;;;;;;4957389;28;20231;-74
2020/12/26 00:51:13;;;;;;;14.70;8.45;;;3.90;99.90;;;;;;4956215;28;20302;-74
2020/12/26 00:53:39;;;;;;;16.17;10.02;;;3.90;99.90;;;;;;4954992;28;20212;-74
2020/12/26 00:56:09;;;;;;;14.43;8.90;;;3.80;99.90;;;;;;4924492;29;20203;-74
2020/12/26 00:58:35;;;;;;;13.70;9.10;;;3.90;99.90;;;;;;4955891;28;20207;-73
2020/12/26 01:01:03;;;;;;;14.20;9.40;;;3.90;99.90;;;;;;4955806;28;20184;-74
2020/12/26 01:03:52;;;;;;;13.77;9.57;;;3.90;99.90;;;;;;4923703;29;20240;-74
2020/12/26 01:06:18;;;;;;;10.83;8.83;;;3.90;99.90;;;;;;4939008;29;20209;-75
2020/12/26 01:08:44;;;;;;;13.20;7.93;;;3.90;99.90;;;;;;4955612;28;20501;-77
2020/12/26 01:11:11;;;;;;;13.07;7.88;;;4.00;99.90;;;;;;4955837;29;20196;-76
2020/12/26 01:13:39;;;;;;;13.43;8.55;;;3.90;99.90;;;;;;4923296;29;20548;-76
2020/12/26 01:16:11;;;;;;;10.75;7.57;;;3.90;99.90;;;;;;4955438;29;20733;-76
2020/12/26 01:18:40;;;;;;;12.48;7.85;;;3.70;99.90;;;;;;4939605;29;20184;-75
2020/12/26 01:21:07;;;;;;;14.10;8.95;;;3.80;99.90;;;;;;4938628;29;20669;-75
2020/12/26 01:23:34;;;;;;;17.33;10.27;;;3.90;99.90;;;;;;4955386;29;20172;-75
2020/12/26 01:26:02;;;;;;;12.48;7.25;;;3.80;99.90;;;;;;4939368;29;20200;-75
2020/12/26 01:28:31;;;;;;;12.38;7.75;;;3.90;99.90;;;;;;4956531;28;20593;-76
2020/12/26 01:30:57;;;;;;;13.38;7.80;;;3.70;99.90;;;;;;4939314;29;20609;-76
2020/12/26 01:33:25;;;;;;;9.40;8.10;;;3.70;99.90;;;;;;4923263;29;20180;-76
2020/12/26 01:35:56;;;;;;;11.85;8.32;;;4.00;99.90;;;;;;4954630;29;20192;-76
2020/12/26 01:38:22;;;;;;;11.02;7.47;;;3.70;99.90;;;;;;4954461;28;20240;-75
2020/12/26 01:40:51;;;;;;;13.60;7.90;;;3.80;99.90;;;;;;4955017;28;20188;-75
2020/12/26 01:43:17;;;;;;;11.15;7.22;;;3.70;99.90;;;;;;4955402;28;20673;-76
2020/12/26 01:45:46;;;;;;;15.00;7.57;;;3.70;99.90;;;;;;4954554;29;20180;-75
2020/12/26 01:48:17;;;;;;;10.00;7.40;;;3.80;99.90;;;;;;4951211;28;20219;-75
2020/12/26 01:50:44;;;;;;;15.07;7.78;;;3.60;99.90;;;;;;4937623;29;20214;-75
2020/12/26 01:53:13;;;;;;;9.15;7.97;;;3.70;99.90;;;;;;4954483;29;20195;-74
2020/12/26 01:55:42;;;;;;;12.25;7.63;;;3.90;99.90;;;;;;4954498;29;20183;-76
2020/12/26 01:58:13;;;;;;;12.18;7.18;;;3.60;99.90;;;;;;4956040;28;20270;-76
2020/12/26 02:00:40;;;;;;;10.75;7.75;;;3.80;99.90;;;;;;4955818;28;20181;-75
2020/12/26 02:03:07;;;;;;;10.70;8.05;;;3.80;99.90;;;;;;4954325;29;20239;-75
2020/12/26 02:05:33;;;;;;;10.88;7.45;;;3.50;99.90;;;;;;4938454;29;20218;-76
2020/12/26 02:08:03;;;;;;;16.30;6.95;;;3.60;99.90;;;;;;4943528;28;20288;-76
2020/12/26 02:10:29;;;;;;;18.83;7.85;;;3.70;99.90;;;;;;4919584;29;20216;-76
2020/12/26 02:12:55;;;;;;;11.10;7.47;;;3.70;99.90;;;;;;4950691;29;20672;-75
2020/12/26 02:15:21;;;;;;;10.15;7.50;;;3.80;99.90;;;;;;4954610;28;20645;-76
2020/12/26 02:17:47;;;;;;;12.80;7.53;;;3.80;99.90;;;;;;4953015;28;20215;-76
2020/12/26 02:20:16;;;;;;;11.18;7.72;;;3.70;99.90;;;;;;4954370;28;20660;-75
2020/12/26 02:22:44;;;;;;;9.45;6.72;;;3.70;99.90;;;;;;4955709;28;20787;-75
2020/12/26 02:25:10;;;;;;;12.57;8.27;;;3.80;99.90;;;;;;4954621;28;20190;-75
2020/12/26 02:27:44;;;;;;;10.27;8.02;;;3.50;99.90;;;;;;4955168;28;20203;-76
2020/12/26 02:30:13;;;;;;;8.48;6.55;;;3.60;99.90;;;;;;4953846;29;20262;-75
2020/12/26 02:32:41;;;;;;;12.20;7.70;;;3.50;99.90;;;;;;4953768;29;20188;-75
2020/12/26 02:35:10;;;;;;;7.63;6.40;;;3.60;99.90;;;;;;4938408;29;20192;-76
2020/12/26 02:37:39;;;;;;;8.93;7.32;;;3.60;99.90;;;;;;4952768;28;20647;-76
2020/12/26 02:40:10;;;;;;;8.15;6.35;;;3.60;99.90;;;;;;4953956;28;20194;-75
2020/12/26 02:42:38;;;;;;;10.13;6.65;;;3.60;99.90;;;;;;4953529;29;20183;-75
2020/12/26 02:45:11;;;;;;;9.48;6.70;;;3.50;99.90;;;;;;4953796;29;20180;-76
2020/12/26 02:47:37;;;;;;;8.20;6.50;;;3.60;99.90;;;;;;4953456;28;20208;-75
2020/12/26 02:50:03;;;;;;;11.20;7.73;;;3.70;99.90;;;;;;4937973;28;20597;-75
2020/12/26 02:52:29;;;;;;;8.25;6.40;;;3.60;99.90;;;;;;4953562;29;20789;-75
2020/12/26 02:54:58;;;;;;;10.60;6.75;;;3.70;99.90;;;;;;4937961;28;20604;-75
2020/12/26 02:57:26;;;;;;;8.18;6.47;;;3.60;99.90;;;;;;4953135;29;20239;-75
2020/12/26 02:59:52;;;;;;;7.17;6.47;;;3.70;99.90;;;;;;4955354;28;20176;-75
2020/12/26 03:02:21;;;;;;;10.45;7.80;;;3.60;99.90;;;;;;4953107;29;20518;-75
2020/12/26 03:04:49;;;;;;;11.40;7.40;;;3.90;99.90;;;;;;4953490;29;20220;-75
2020/12/26 03:07:15;;;;;;;9.60;7.68;;;3.70;99.90;;;;;;4949618;28;20712;-76
2020/12/26 03:09:49;;;;;;;10.15;7.68;;;3.70;99.90;;;;;;4934383;29;20687;-76
2020/12/26 03:12:15;;;;;;;9.38;7.70;;;3.60;99.90;;;;;;4957210;28;20200;-75
2020/12/26 03:14:41;;;;;;;14.05;8.15;;;3.70;99.90;;;;;;4937474;29;20286;-76
2020/12/26 03:17:07;;;;;;;12.45;8.25;;;3.90;99.90;;;;;;4950451;28;20212;-76
2020/12/26 03:19:33;;;;;;;13.63;9.67;;;3.70;99.90;;;;;;4936700;29;20224;-75
2020/12/26 03:22:01;;;;;;;12.93;8.20;;;3.70;99.90;;;;;;4952680;28;20459;-75
2020/12/26 03:24:26;;;;;;;12.15;9.05;;;3.80;99.90;;;;;;4937225;29;20693;-75
2020/12/26 03:26:55;;;;;;;14.73;9.27;;;3.80;99.90;;;;;;4936963;29;20207;-75
2020/12/26 03:29:21;;;;;;;12.50;9.43;;;3.90;99.90;;;;;;4953127;29;20514;-76
2020/12/26 03:31:47;;;;;;;13.10;9.97;;;3.70;99.90;;;;;;4937185;29;20295;-76
2020/12/26 03:34:15;;;;;;;15.35;10.10;;;3.70;99.90;;;;;;4953093;28;20428;-75
2020/12/26 03:36:44;;;;;;;12.73;10.35;;;4.00;99.90;;;;;;4951707;28;20282;-75
2020/12/26 03:39:13;;;;;;;12.05;9.90;;;3.80;99.90;;;;;;4949595;29;20224;-75
2020/12/26 03:41:41;;;;;;;16.38;11.20;;;3.80;99.90;;;;;;4937503;29;20191;-75
2020/12/26 03:44:08;;;;;;;11.77;9.73;;;3.90;99.90;;;;;;4954032;28;20196;-75
2020/12/26 03:46:37;;;;;;;13.40;10.23;;;4.00;99.90;;;;;;4936667;29;20295;-76
2020/12/26 03:49:05;;;;;;;14.75;10.93;;;3.90;99.90;;;;;;4952979;29;20424;-75
2020/12/26 03:51:32;;;;;;;15.65;9.85;;;3.90;99.90;;;;;;4952635;29;20921;-75
2020/12/26 03:53:58;;;;;;;15.60;10.75;;;3.90;99.90;;;;;;4952929;28;20198;-75
2020/12/26 03:56:25;;;;;;;19.27;11.50;;;3.80;99.90;;;;;;4953866;28;20204;-75
2020/12/26 03:58:55;;;;;;;14.55;10.70;;;3.90;99.90;;;;;;4921202;29;20420;-75
2020/12/26 04:01:24;;;;;;;13.10;10.70;;;3.90;99.90;;;;;;4952769;28;20192;-75
2020/12/26 04:03:50;;;;;;;15.75;11.60;;;3.70;99.90;;;;;;4952816;29;20184;-75
2020/12/26 04:06:16;;;;;;;17.55;11.52;;;3.90;99.90;;;;;;4951474;28;20709;-75
2020/12/26 04:08:42;;;;;;;16.10;11.73;;;3.70;99.90;;;;;;4935940;28;20197;-76
2020/12/26 04:11:10;;;;;;;17.60;12.05;;;3.80;99.90;;;;;;4947008;29;20211;-76
2020/12/26 04:13:41;;;;;;;15.07;9.93;;;3.70;99.90;;;;;;4953689;28;20195;-75
2020/12/26 04:16:15;;;;;;;23.02;13.00;;;3.90;99.90;;;;;;4953919;28;20209;-75
2020/12/26 04:18:41;;;;;;;19.52;10.85;;;4.00;99.90;;;;;;4952155;29;20176;-75
2020/12/26 04:21:08;;;;;;;18.98;11.63;;;3.90;99.90;;;;;;4953927;28;20223;-75
2020/12/26 04:23:34;;;;;;;13.50;10.82;;;3.90;99.90;;;;;;4954093;28;20646;-75
2020/12/26 04:26:01;;;;;;;21.10;12.35;;;4.10;99.90;;;;;;4951955;28;20208;-75
2020/12/26 04:28:30;;;;;;;16.90;11.70;;;4.00;99.90;;;;;;4952729;28;20191;-75
2020/12/26 04:30:58;;;;;;;12.65;10.05;;;3.90;99.90;;;;;;4953106;28;20211;-74
2020/12/26 04:33:29;;;;;;;20.05;11.88;;;4.00;99.90;;;;;;4936686;29;20651;-75
2020/12/26 04:35:55;;;;;;;12.93;10.15;;;3.90;99.90;;;;;;4952403;28;20207;-76
2020/12/26 04:38:24;;;;;;;14.85;11.48;;;3.80;99.90;;;;;;4947924;28;20669;-75
2020/12/26 04:40:50;;;;;;;15.05;11.75;;;3.80;99.90;;;;;;4936712;29;20666;-75
2020/12/26 04:43:17;;;;;;;15.93;12.27;;;4.00;99.90;;;;;;4952170;28;20259;-75
2020/12/26 04:45:49;;;;;;;15.02;11.90;;;3.90;99.90;;;;;;4952098;29;20172;-75
2020/12/26 04:48:20;;;;;;;13.77;11.50;;;3.90;99.90;;;;;;4954323;28;20184;-75
2020/12/26 04:50:48;;;;;;;16.75;11.70;;;3.90;99.90;;;;;;4957264;28;20215;-75
2020/12/26 04:53:18;;;;;;;16.30;12.57;;;3.90;99.90;;;;;;4955558;29;20728;-75
2020/12/26 04:55:49;;;;;;;17.45;11.90;;;4.00;99.90;;;;;;4955544;29;20192;-75
2020/12/26 04:58:20;;;;;;;15.38;12.13;;;4.00;99.90;;;;;;4955601;28;20192;-75
2020/12/26 05:00:46;;;;;;;14.90;12.80;;;4.10;99.90;;;;;;4940023;29;20195;-75
2020/12/26 05:03:17;;;;;;;19.65;13.43;;;4.00;99.90;;;;;;4939116;29;20219;-75
2020/12/26 05:05:45;;;;;;;14.57;12.95;;;4.00;99.90;;;;;;4955575;28;20259;-75
2020/12/26 05:08:13;;;;;;;22.40;14.02;;;3.90;99.90;;;;;;4932090;29;20199;-75
2020/12/26 05:10:42;;;;;;;18.80;13.10;;;3.90;99.90;;;;;;4955437;29;20270;-75
2020/12/26 05:13:13;;;;;;;22.38;13.48;;;4.00;99.90;;;;;;4939980;29;20188;-75
2020/12/26 05:15:39;;;;;;;15.50;13.90;;;3.90;99.90;;;;;;4923983;29;20661;-75
2020/12/26 05:18:08;;;;;;;19.33;12.93;;;3.90;99.90;;;;;;4939680;29;20729;-75
2020/12/26 05:20:34;;;;;;;21.13;13.50;;;4.10;99.90;;;;;;4956902;28;20168;-75
2020/12/26 05:23:10;;;;;;;18.23;13.73;;;4.00;99.90;;;;;;4954370;28;20200;-76
2020/12/26 05:25:52;;;;;;;19.67;13.45;;;4.20;99.90;;;;;;4955351;29;20462;-75
2020/12/26 05:28:19;;;;;;;20.70;14.20;;;4.10;99.90;;;;;;4955015;29;20179;-76
2020/12/26 05:30:48;;;;;;;16.30;14.10;;;4.10;99.90;;;;;;4939167;29;20219;-75
2020/12/26 05:33:18;;;;;;;14.35;12.02;;;4.20;99.90;;;;;;4954678;28;20266;-75
2020/12/26 05:35:52;;;;;;;17.08;12.52;;;4.20;99.90;;;;;;4956071;28;20300;-75
2020/12/26 05:38:27;;;;;;;18.65;12.82;;;4.20;99.90;;;;;;4938642;29;20226;-75
2020/12/26 05:40:59;;;;;;;16.27;14.05;;;4.20;99.90;;;;;;4956452;28;20582;-76
2020/12/26 05:43:32;;;;;;;20.00;14.02;;;4.20;99.90;;;;;;4954823;29;20282;-75
2020/12/26 05:45:59;;;;;;;15.52;13.90;;;4.20;99.90;;;;;;4954752;29;20346;-75
2020/12/26 05:48:27;;;;;;;17.73;13.75;;;4.20;99.90;;;;;;4938302;29;20552;-75
2020/12/26 05:50:57;;;;;;;21.80;14.68;;;4.20;99.90;;;;;;4954702;29;20203;-75
2020/12/26 05:53:25;;;;;;;16.75;14.63;;;4.30;99.90;;;;;;4954313;28;20184;-76
2020/12/26 05:55:51;;;;;;;19.85;13.52;;;4.10;99.90;;;;;;4954344;29;20210;-76
2020/12/26 05:58:22;;;;;;;20.77;13.90;;;4.10;99.90;;;;;;4954448;28;20194;-76
2020/12/26 06:00:50;;;;;;;18.52;14.85;;;4.10;99.90;;;;;;4953545;29;20198;-76
2020/12/26 06:03:24;;;;;;;19.90;14.70;;;4.10;99.90;;;;;;4938554;29;20183;-76
2020/12/26 06:05:55;;;;;;;18.05;14.98;;;4.20;99.90;;;;;;4954144;29;20219;-75
2020/12/26 06:08:26;;;;;;;20.80;14.98;;;4.20;99.90;;;;;;4935524;29;20204;-76
2020/12/26 06:10:53;;;;;;;20.52;14.07;;;4.20;99.90;;;;;;4935700;29;20215;-76
2020/12/26 06:13:32;;;;;;;20.83;14.65;;;4.10;99.90;;;;;;5069521;28;20590;-75
2020/12/26 06:16:16;;;;;;;21.77;15.60;;;4.00;99.90;;;;;;5067890;28;20200;-75
2020/12/26 06:18:57;;;;;;;19.95;16.15;;;4.00;99.90;;;;;;5068278;28;20172;-75
2020/12/26 06:21:29;;;;;;;20.48;15.55;;;4.00;99.90;;;;;;5048046;28;20194;-75
2020/12/26 06:23:55;;;;;;;19.15;15.73;;;3.90;99.90;;;;;;5050377;28;20292;-75
2020/12/26 06:26:27;;;;;;;20.98;15.75;;;3.90;99.90;;;;;;5067945;28;20548;-75
2020/12/26 06:28:54;;;;;;;20.02;16.17;;;3.90;99.90;;;;;;5067658;28;20192;-75
2020/12/26 06:31:23;;;;;;;24.85;17.45;;;3.90;99.90;;;;;;5068050;28;20188;-75
2020/12/26 06:33:50;;;;;;;22.95;17.90;;;3.80;99.90;;;;;;5047890;28;20173;-75
2020/12/26 06:36:21;;;;;;;29.42;17.08;;;3.80;99.90;;;;;;5045194;28;20208;-75
2020/12/26 06:38:50;;;;;;;21.80;16.95;;;3.70;99.90;;;;;;5047887;28;20214;-75
2020/12/26 06:41:17;;;;;;;23.92;17.15;;;3.70;99.90;;;;;;5044666;28;20219;-74
2020/12/26 06:43:56;;;;;;;22.58;17.63;;;3.80;99.90;;;;;;5050816;28;20179;-75
2020/12/26 06:46:22;;;;;;;22.85;18.15;;;3.60;99.90;;;;;;5068897;28;20709;-75
2020/12/26 06:48:49;;;;;;;23.70;18.40;;;3.50;99.90;;;;;;5065814;28;20211;-75
2020/12/26 06:51:30;;;;;;;23.75;18.58;;;3.50;99.90;;;;;;5051005;28;20919;-75
2020/12/26 06:54:04;;;;;;;24.38;18.67;;;3.60;99.90;;;;;;5067394;28;20202;-75
2020/12/26 06:56:33;;;;;;;23.70;17.80;;;3.30;99.90;;;;;;5066896;28;20614;-75
2020/12/26 06:59:11;;;;;;;26.50;18.17;;;3.60;99.90;;;;;;5067463;28;20634;-75
2020/12/26 07:01:45;;;;;;;26.35;17.40;;;3.50;99.90;;;;;;5047241;28;20269;-75
2020/12/26 07:04:12;;;;;;;32.63;19.90;;;3.30;99.90;;;;;;5048693;28;20666;-75
2020/12/26 07:06:47;;;;;;;27.48;18.70;;;3.30;99.90;;;;;;5066092;28;20200;-75
2020/12/26 07:09:18;;;;;;;31.30;20.42;;;3.30;99.90;;;;;;5047177;28;20262;-75
2020/12/26 07:11:52;;;;;;;30.83;20.25;;;3.40;99.90;;;;;;5049187;28;20220;-75
2020/12/26 07:14:36;;;;;;;30.30;20.48;;;3.10;99.90;;;;;;5068072;28;20219;-75
2020/12/26 07:17:14;;;;;;;30.65;19.98;;;3.20;99.90;;;;;;5067010;28;20207;-75
2020/12/26 07:19:47;;;;;;;26.77;18.60;;;3.10;99.90;;;;;;5066614;28;20671;-75
2020/12/26 07:22:27;;;;;;;28.70;20.77;;;3.10;99.90;;;;;;5050187;28;20500;-75
2020/12/26 07:24:56;;;;;;;37.20;21.00;;;3.20;99.90;;;;;;5053450;28;20204;-75
2020/12/26 07:27:23;;;;;;;26.45;19.33;;;3.00;99.90;;;;;;5036411;28;20291;-75
2020/12/26 07:29:59;;;;;;;30.25;19.45;;;2.80;99.90;;;;;;5021261;28;20551;-75
2020/12/26 07:32:38;;;;;;;30.45;18.92;;;3.00;99.90;;;;;;5052557;28;20234;-75
2020/12/26 07:35:25;;;;;;;25.85;18.00;;;3.00;99.90;;;;;;5036859;28;20230;-75
2020/12/26 07:37:51;;;;;;;25.48;17.27;;;3.10;99.90;;;;;;5052898;28;20246;-75
2020/12/26 07:40:22;;;;;;;25.13;17.33;;;2.90;99.90;;;;;;5053211;28;20215;-75
2020/12/26 07:42:54;;;;;;;27.58;18.95;;;3.10;99.90;;;;;;5036348;28;20443;-75
2020/12/26 07:45:21;;;;;;;24.80;17.25;;;2.90;99.90;;;;;;5034106;28;20181;-75
2020/12/26 07:47:52;;;;;;;26.05;19.00;;;3.10;99.90;;;;;;5036336;28;20217;-75
2020/12/26 07:50:22;;;;;;;25.05;17.23;;;2.80;99.90;;;;;;5020060;28;20227;-75
2020/12/26 07:53:18;;;;;;;26.00;16.25;;;2.90;99.90;;;;;;5053732;28;20208;-75
2020/12/26 07:55:44;;;;;;;22.40;16.08;;;3.00;99.90;;;;;;5042013;28;20193;-75
2020/12/26 07:58:18;;;;;;;30.70;17.13;;;2.90;99.90;;;;;;5053097;28;20626;-75
2020/12/26 08:00:48;;;;;;;23.90;15.50;;;3.00;99.90;;;;;;5053810;28;20607;-75
2020/12/26 08:03:16;;;;;;;24.27;15.07;;;2.90;99.90;;;;;;5053970;28;20181;-75
2020/12/26 08:05:51;;;;;;;21.17;14.93;;;2.80;99.90;;;;;;5052251;28;20188;-75
2020/12/26 08:08:23;;;;;;;26.02;16.80;;;3.00;99.90;;;;;;5039898;28;20204;-75
2020/12/26 08:11:00;;;;;;;27.58;16.48;;;2.90;99.90;;;;;;5040940;28;20542;-75
2020/12/26 08:13:29;;;;;;;24.20;14.93;;;3.00;99.90;;;;;;5053621;28;20777;-75
2020/12/26 08:16:05;;;;;;;20.30;14.95;;;3.00;99.90;;;;;;5032486;28;20193;-75
2020/12/26 08:18:38;;;;;;;23.30;15.45;;;2.90;99.90;;;;;;5044716;28;20653;-75
2020/12/26 08:21:06;;;;;;;24.02;16.90;;;3.20;99.90;;;;;;5052298;28;20181;-75
2020/12/26 08:23:36;;;;;;;22.23;15.02;;;3.00;99.90;;;;;;5051237;28;20192;-75
2020/12/26 08:26:05;;;;;;;21.23;14.60;;;3.00;99.90;;;;;;5052672;28;20670;-75
2020/12/26 08:28:33;;;;;;;20.33;13.82;;;3.10;99.90;;;;;;5052463;28;20236;-75
2020/12/26 08:31:05;;;;;;;23.08;13.82;;;2.90;99.90;;;;;;5035645;28;20265;-74
2020/12/26 08:33:46;;;;;;;18.48;12.50;;;3.00;99.90;;;;;;5035451;28;20202;-75
2020/12/26 08:36:13;;;;;;;19.25;11.90;;;3.20;99.90;;;;;;5052063;28;20200;-75
2020/12/26 08:38:59;;;;;;;17.92;13.30;;;3.10;99.90;;;;;;5019866;28;20188;-75
2020/12/26 08:41:28;;;;;;;18.75;11.60;;;3.40;99.90;;;;;;5032202;28;20185;-74
2020/12/26 08:43:54;;;;;;;17.67;12.10;;;3.20;99.90;;;;;;5032120;28;20205;-76
2020/12/26 08:46:27;;;;;;;15.88;11.80;;;3.50;99.90;;;;;;5047031;28;20196;-75
2020/12/26 08:48:55;;;;;;;18.30;11.60;;;3.40;99.90;;;;;;5052419;28;20188;-79
2020/12/26 08:51:23;;;;;;;15.75;11.30;;;3.50;99.90;;;;;;5034101;28;20349;-79
2020/12/26 08:53:52;;;;;;;17.13;11.57;;;3.60;99.90;;;;;;5035494;28;20198;-78
2020/12/26 08:56:41;;;;;;;15.48;11.10;;;3.60;99.90;;;;;;5037327;28;20245;-77
2020/12/26 08:59:07;;;;;;;15.88;10.75;;;3.70;99.90;;;;;;5054560;28;20259;-76
2020/12/26 09:01:34;;;;;;;17.63;12.90;;;4.00;99.90;;;;;;5054356;28;20184;-78
2020/12/26 09:04:00;;;;;;;19.75;10.57;;;3.80;99.90;;;;;;5036317;28;20216;-77
2020/12/26 09:06:34;;;;;;;14.13;9.85;;;3.90;99.90;;;;;;5039660;28;20209;-78
2020/12/26 09:09:21;;;;;;;15.93;10.90;;;3.80;99.90;;;;;;5033082;28;20255;-77
2020/12/26 09:11:59;;;;;;;16.27;11.20;;;3.80;99.90;;;;;;5051474;28;20677;-77
2020/12/26 09:14:25;;;;;;;15.13;10.60;;;3.80;99.90;;;;;;5051511;28;20180;-78
2020/12/26 09:17:01;;;;;;;15.95;10.05;;;3.80;99.90;;;;;;5051552;28;20208;-77
2020/12/26 09:19:52;;;;;;;13.70;9.80;;;3.70;99.90;;;;;;5033885;28;20196;-78
2020/12/26 09:22:18;;;;;;;14.32;11.02;;;4.00;99.90;;;;;;5031426;28;20400;-78
2020/12/26 09:24:47;;;;;;;15.10;10.45;;;3.90;99.90;;;;;;5045093;28;20238;-79
2020/12/26 09:27:21;;;;;;;16.88;11.43;;;3.80;99.90;;;;;;5034687;28;20232;-78
2020/12/26 09:29:54;;;;;;;19.13;10.02;;;3.80;99.90;;;;;;5050491;28;20192;-78
2020/12/26 09:32:23;;;;;;;15.50;10.75;;;3.80;99.90;;;;;;5051366;28;20212;-80
2020/12/26 09:34:49;;;;;;;15.43;10.57;;;3.90;99.90;;;;;;5035569;28;20194;-78
2020/12/26 09:37:15;;;;;;;18.20;11.25;;;4.00;99.90;;;;;;5034806;28;20254;-78
2020/12/26 09:39:43;;;;;;;16.00;10.77;;;4.40;99.90;;;;;;5051063;28;20608;-78
2020/12/26 09:42:11;;;;;;;13.95;9.60;;;4.40;99.90;;;;;;5052327;28;20423;-78
2020/12/26 09:44:37;;;;;;;16.43;11.03;;;4.60;99.90;;;;;;5034577;28;20280;-78
2020/12/26 09:47:06;;;;;;;18.75;12.20;;;4.50;99.90;;;;;;5032670;28;20511;-77
2020/12/26 09:49:34;;;;;;;18.38;10.98;;;4.60;99.90;;;;;;5027510;28;20986;-77
2020/12/26 09:52:00;;;;;;;17.17;9.67;;;4.70;99.90;;;;;;5050562;28;20282;-77
2020/12/26 09:54:26;;;;;;;15.35;9.40;;;4.70;99.90;;;;;;5033413;28;20473;-77
2020/12/26 09:56:57;;;;;;;18.17;10.10;;;4.70;99.90;;;;;;5035411;28;20196;-77
2020/12/26 09:59:27;;;;;;;18.67;10.60;;;4.60;99.90;;;;;;5018458;28;20634;-78
2020/12/26 10:01:53;;;;;;;17.42;11.20;;;4.60;99.90;;;;;;5034677;28;20161;-77
2020/12/26 10:04:19;;;;;;;16.33;9.98;;;4.60;99.90;;;;;;5052637;28;20190;-78
2020/12/26 10:06:48;;;;;;;17.75;10.75;;;4.60;99.90;;;;;;5031099;28;20964;-78
2020/12/26 10:09:14;;;;;;;17.35;10.30;;;4.70;99.90;;;;;;5046500;28;20192;-77
2020/12/26 10:11:42;;;;;;;15.30;9.75;;;4.60;99.90;;;;;;5052296;28;20235;-78
2020/12/26 10:14:08;;;;;;;14.02;8.82;;;4.70;99.90;;;;;;4995514;23;20242;-78
2020/12/26 10:16:37;;;;;;;18.98;10.27;;;4.70;99.90;;;;;;4977093;28;20225;-79
2020/12/26 10:19:05;;;;;;;16.05;10.55;;;4.70;99.90;;;;;;4970269;28;20194;-77
2020/12/26 10:21:34;;;;;;;13.90;9.25;;;4.70;99.90;;;;;;4982675;28;20186;-77
2020/12/26 10:24:00;;;;;;;17.55;10.27;;;4.90;99.90;;;;;;4992287;28;20191;-78
2020/12/26 10:26:26;;;;;;;13.63;8.48;;;4.80;99.90;;;;;;4984216;28;20559;-78
2020/12/26 10:29:12;;;;;;;13.80;10.00;;;4.80;99.90;;;;;;4993520;28;20202;-78
2020/12/26 10:31:39;;;;;;;16.52;9.52;;;4.80;99.90;;;;;;4987625;28;20461;-77
2020/12/26 10:34:05;;;;;;;16.63;9.60;;;4.90;99.90;;;;;;4993288;28;20528;-77
2020/12/26 10:36:33;;;;;;;17.33;9.57;;;4.80;99.90;;;;;;4980218;28;20458;-78
2020/12/26 10:38:59;;;;;;;13.13;8.30;;;4.80;99.90;;;;;;4993855;28;20269;-78
2020/12/26 10:41:27;;;;;;;14.68;8.82;;;4.90;99.90;;;;;;4992543;28;20504;-78
2020/12/26 10:43:56;;;;;;;11.57;8.70;;;4.90;99.90;;;;;;4989979;28;20186;-78
2020/12/26 10:46:22;;;;;;;10.13;7.22;;;5.00;99.90;;;;;;4995034;28;20257;-78
2020/12/26 10:48:48;;;;;;;10.97;7.30;;;5.10;99.90;;;;;;4990462;28;20194;-80
2020/12/26 10:51:14;;;;;;;11.45;7.57;;;5.10;99.90;;;;;;4976513;28;20465;-80
2020/12/26 10:53:40;;;;;;;12.10;7.43;;;5.10;99.90;;;;;;4973122;28;20194;-78
2020/12/26 10:56:08;;;;;;;11.65;7.65;;;5.20;99.90;;;;;;4976034;28;20211;-80
2020/12/26 10:58:34;;;;;;;12.00;8.23;;;5.40;99.90;;;;;;4991284;28;20241;-80
2020/12/26 11:01:00;;;;;;;16.45;7.85;;;5.30;99.90;;;;;;4981610;28;20765;-80
2020/12/26 11:03:26;;;;;;;9.85;5.85;;;5.50;99.90;;;;;;4991465;28;20225;-78
2020/12/26 11:05:52;;;;;;;10.75;6.65;;;5.50;99.90;;;;;;4997866;28;20210;-80
2020/12/26 11:08:18;;;;;;;10.00;6.90;;;5.60;99.90;;;;;;4996986;28;20530;-79
2020/12/26 11:10:45;;;;;;;10.32;6.45;;;5.60;99.90;;;;;;4996600;28;20508;-78
2020/12/26 11:13:13;;;;;;;8.32;6.38;;;5.60;99.90;;;;;;4994327;28;20357;-80
2020/12/26 11:15:41;;;;;;;10.70;7.30;;;5.60;99.90;;;;;;4997033;28;20183;-78
2020/12/26 11:18:07;;;;;;;10.30;5.85;;;5.70;99.90;;;;;;4991406;28;20187;-80
2020/12/26 11:20:34;;;;;;;10.05;6.32;;;6.00;99.90;;;;;;5013627;28;20712;-80
2020/12/26 11:23:00;;;;;;;10.80;6.13;;;6.10;99.90;;;;;;4989381;28;20603;-79
2020/12/26 11:25:26;;;;;;;8.03;5.80;;;6.10;99.90;;;;;;4994594;28;20186;-79
2020/12/26 11:27:52;;;;;;;7.47;5.53;;;6.00;99.90;;;;;;4989077;28;20541;-79
2020/12/26 11:30:18;;;;;;;9.90;6.10;;;6.00;99.90;;;;;;4995366;28;20273;-78
2020/12/26 11:32:44;;;;;;;7.30;5.50;;;5.90;99.90;;;;;;4982110;28;20469;-79
2020/12/26 11:35:10;;;;;;;8.90;5.60;;;5.90;99.90;;;;;;4984706;28;20187;-80
2020/12/26 11:37:36;;;;;;;12.35;6.20;;;5.90;99.90;;;;;;4970994;28;20564;-81
2020/12/26 11:40:03;;;;;;;7.75;5.63;;;5.90;99.90;;;;;;5011045;28;20187;-80
2020/12/26 11:42:29;;;;;;;11.48;5.30;;;6.00;99.90;;;;;;4996611;28;20584;-82
2020/12/26 11:44:55;;;;;;;5.40;4.90;;;5.90;99.90;;;;;;4994584;28;20178;-79
2020/12/26 11:47:21;;;;;;;7.32;4.90;;;6.00;99.90;;;;;;4996356;28;20488;-77
2020/12/26 11:49:47;;;;;;;4.10;3.70;;;6.00;99.90;;;;;;4994995;28;20190;-80
2020/12/26 11:52:16;;;;;;;6.32;4.72;;;6.00;99.90;;;;;;4993880;28;20241;-80
2020/12/26 11:54:42;;;;;;;8.32;4.72;;;5.90;99.90;;;;;;4977745;28;20580;-78
2020/12/26 11:57:08;;;;;;;8.50;4.28;;;6.00;99.90;;;;;;5007351;28;20217;-79
2020/12/26 11:59:37;;;;;;;6.25;4.15;;;6.00;99.90;;;;;;4996722;28;20194;-78
2020/12/26 12:02:03;;;;;;;6.57;4.00;;;6.00;99.90;;;;;;4996599;28;20702;-80
2020/12/26 12:04:35;;;;;;;5.07;4.10;;;6.10;99.90;;;;;;5012193;28;20209;-79
2020/12/26 12:07:01;;;;;;;4.82;3.60;;;6.20;99.90;;;;;;4964552;28;20697;-80
2020/12/26 12:09:27;;;;;;;6.55;3.25;;;6.30;99.90;;;;;;4963039;28;20189;-77
2020/12/26 12:11:53;;;;;;;8.55;4.18;;;6.30;99.90;;;;;;4997160;28;20301;-79
2020/12/26 12:14:22;;;;;;;6.32;4.43;;;6.20;99.90;;;;;;4998796;28;20233;-80
2020/12/26 12:16:49;;;;;;;7.32;4.80;;;6.10;99.90;;;;;;4999222;28;20257;-80
2020/12/26 12:19:16;;;;;;;4.75;4.25;;;6.10;99.90;;;;;;4979771;28;20267;-80
2020/12/26 12:21:46;;;;;;;4.78;3.92;;;6.10;99.90;;;;;;4997706;28;20237;-81
2020/12/26 12:24:17;;;;;;;4.60;3.90;;;6.10;99.90;;;;;;5013032;28;20210;-80
2020/12/26 12:26:43;;;;;;;7.05;4.65;;;6.10;99.90;;;;;;5013447;28;20210;-78
2020/12/26 12:29:09;;;;;;;8.10;4.25;;;6.10;99.90;;;;;;5004376;28;20202;-77
2020/12/26 12:31:40;;;;;;;7.33;5.20;;;6.10;99.90;;;;;;5012832;28;20630;-81
2020/12/26 12:34:06;;;;;;;5.10;3.90;;;6.20;99.90;;;;;;4999441;28;20488;-79
2020/12/26 12:36:33;;;;;;;9.07;4.53;;;6.20;99.90;;;;;;4997124;28;20213;-80
2020/12/26 12:39:00;;;;;;;4.90;3.80;;;6.20;99.90;;;;;;5014115;28;20541;-81
2020/12/26 12:41:28;;;;;;;5.50;3.83;;;6.10;99.90;;;;;;5012892;28;20230;-80
2020/12/26 12:43:55;;;;;;;4.40;3.50;;;6.20;99.90;;;;;;4995935;28;20179;-80
2020/12/26 12:46:21;;;;;;;7.70;4.03;;;6.00;99.90;;;;;;4998461;28;20209;-80
2020/12/26 12:48:48;;;;;;;4.43;3.30;;;6.00;99.90;;;;;;5012952;28;20208;-79
2020/12/26 12:51:16;;;;;;;7.25;5.30;;;6.10;99.90;;;;;;4997316;28;20242;-80
2020/12/26 12:53:44;;;;;;;8.68;7.35;;;6.00;99.90;;;;;;5000563;28;20190;-79